Terminal Aerodrome Forecast
Issued by NWS

Home | Current Version | Previous Version | Text Only | Print | Product List | Glossary On
Versions: 1 2 3 4 5 6 7 8 9 10 11 12 13 14 15 16 17
864
FTUS43 KGRR 071140
TAFBTL
TAF
KBTL 071140Z 0712/0812 19007KT P6SM BKN120
     FM071400 20014G20KT P6SM BKN250
     FM072200 21008KT P6SM OVC035
     FM080700 24005KT 2SM BR OVC025
     FM080900 22004KT 1SM BR OVC005=

USA.gov is the U.S. government's official web portal to all federal, state and local government web resources and services.